createdAt,value
2023-02-04T00:00:31.049Z,1.50
2023-02-04T00:02:59.123Z,1.55
2023-02-04T00:05:26.966Z,1.60
2023-02-04T00:07:54.987Z,1.60
2023-02-04T00:10:22.774Z,1.90
2023-02-04T00:12:50.673Z,1.83
2023-02-04T00:15:18.465Z,1.90
2023-02-04T00:17:47.550Z,1.52
2023-02-04T00:20:15.556Z,1.38
2023-02-04T00:22:43.299Z,1.83
2023-02-04T00:25:11.108Z,1.65
2023-02-04T00:27:39.353Z,2.20
2023-02-04T00:30:09.003Z,1.45
2023-02-04T00:32:36.915Z,1.70
2023-02-04T00:35:06.630Z,1.60
2023-02-04T00:37:34.699Z,1.67
2023-02-04T00:40:02.502Z,2.05
2023-02-04T00:42:30.323Z,1.80
2023-02-04T00:44:58.066Z,2.40
2023-02-04T00:47:26.048Z,2.83
2023-02-04T00:49:54.007Z,2.55
2023-02-04T00:52:23.248Z,3.13
2023-02-04T00:54:51.076Z,2.92
2023-02-04T00:57:19.949Z,14.02
2023-02-04T00:59:48.166Z,5.05
2023-02-04T01:02:17.686Z,3.20
2023-02-04T01:04:46.079Z,2.75
2023-02-04T01:07:13.900Z,3.00
2023-02-04T01:09:42.989Z,2.80
2023-02-04T01:12:10.941Z,2.97
2023-02-04T01:14:38.754Z,3.15
2023-02-04T01:17:06.576Z,3.20
2023-02-04T01:19:34.350Z,2.85
2023-02-04T01:22:02.169Z,3.72
2023-02-04T01:24:30.085Z,3.17
2023-02-04T01:27:00.608Z,3.90
2023-02-04T01:29:28.300Z,3.30
2023-02-04T01:31:56.525Z,3.88
2023-02-04T01:34:25.940Z,3.47
2023-02-04T01:36:53.693Z,3.25
2023-02-04T01:39:21.571Z,3.00
2023-02-04T01:41:49.511Z,3.53
2023-02-04T01:44:18.732Z,3.15
2023-02-04T01:46:46.674Z,3.10
2023-02-04T01:49:14.586Z,3.50
2023-02-04T01:51:42.929Z,3.10
2023-02-04T01:54:12.919Z,3.92
2023-02-04T01:56:44.070Z,3.75
2023-02-04T01:59:13.380Z,3.70
2023-02-04T02:01:44.719Z,3.65
2023-02-04T02:04:14.847Z,4.60
2023-02-04T02:06:45.757Z,3.90
2023-02-04T02:09:13.893Z,3.30
2023-02-04T02:11:41.761Z,3.28
2023-02-04T02:14:09.752Z,3.55
2023-02-04T02:16:37.910Z,2.83
2023-02-04T02:19:11.536Z,3.28
2023-02-04T02:21:43.622Z,2.95
2023-02-04T02:26:54.619Z,2.97
2023-02-04T02:29:22.775Z,3.20
2023-02-04T02:31:51.819Z,2.80
2023-02-04T02:34:20.489Z,3.05
2023-02-04T02:36:48.507Z,2.70
2023-02-04T02:39:16.306Z,3.20
2023-02-04T02:41:45.545Z,3.00
2023-02-04T02:44:14.861Z,2.72
2023-02-04T02:46:42.972Z,2.53
2023-02-04T02:49:15.735Z,3.10
2023-02-04T02:51:43.729Z,2.40
2023-02-04T02:54:22.525Z,3.15
2023-02-04T02:56:52.206Z,2.55
2023-02-04T02:59:20.649Z,2.35
2023-02-04T03:01:52.254Z,2.63
2023-02-04T03:04:21.438Z,2.38
2023-02-04T03:06:49.676Z,2.53
2023-02-04T03:09:17.834Z,2.47
2023-02-04T03:11:45.695Z,2.90
2023-02-04T03:14:15.050Z,2.10
2023-02-04T03:16:44.354Z,2.15
2023-02-04T03:19:13.150Z,2.40
2023-02-04T03:21:41.678Z,2.83
2023-02-04T03:24:09.559Z,2.47
2023-02-04T03:26:37.585Z,2.67
2023-02-04T03:29:08.033Z,2.25
2023-02-04T03:31:37.864Z,2.25
2023-02-04T03:34:06.097Z,2.10
2023-02-04T03:36:34.249Z,3.00
2023-02-04T03:39:01.999Z,2.53
2023-02-04T03:41:30.107Z,2.92
2023-02-04T03:43:57.967Z,2.63
2023-02-04T03:46:25.961Z,2.67
2023-02-04T03:48:55.263Z,2.78
2023-02-04T03:51:23.637Z,3.35
2023-02-04T03:53:51.442Z,2.78
2023-02-04T03:56:19.396Z,2.75
2023-02-04T03:58:47.121Z,2.60
2023-02-04T04:01:14.933Z,2.67
2023-02-04T04:03:42.809Z,2.38
2023-02-04T04:06:12.136Z,2.63
2023-02-04T04:08:40.636Z,2.22
2023-02-04T04:11:08.469Z,2.42
2023-02-04T04:13:36.769Z,3.00
2023-02-04T04:16:05.440Z,3.00
2023-02-04T04:18:33.502Z,3.33
2023-02-04T04:21:01.374Z,3.38
2023-02-04T04:23:30.485Z,3.35
2023-02-04T04:25:58.230Z,3.10
2023-02-04T04:28:25.922Z,3.47
2023-02-04T04:30:53.679Z,5.40
2023-02-04T04:33:21.513Z,7.05
2023-02-04T04:35:49.258Z,3.47
2023-02-04T04:38:17.127Z,3.00
2023-02-04T04:40:46.533Z,3.30
2023-02-04T04:43:14.294Z,3.38
2023-02-04T04:45:42.122Z,3.70
2023-02-04T04:48:09.906Z,3.35
2023-02-04T04:50:37.931Z,3.40
2023-02-04T04:53:06.576Z,2.95
2023-02-04T04:55:34.343Z,3.00
2023-02-04T04:58:03.815Z,3.35
2023-02-04T05:00:32.053Z,3.22
2023-02-04T05:03:00.516Z,3.45
2023-02-04T05:05:29.003Z,3.20
2023-02-04T05:07:57.588Z,2.85
2023-02-04T05:10:25.371Z,3.10
2023-02-04T05:12:53.119Z,3.35
2023-02-04T05:15:22.252Z,3.35
2023-02-04T05:17:50.041Z,4.00
2023-02-04T05:20:18.062Z,3.67
2023-02-04T05:22:45.835Z,3.88
2023-02-04T05:25:13.944Z,3.65
2023-02-04T05:27:41.815Z,3.60
2023-02-04T05:30:11.762Z,3.88
2023-02-04T05:32:41.689Z,4.18
2023-02-04T05:35:09.980Z,4.07
2023-02-04T05:37:37.758Z,4.25
2023-02-04T05:40:06.379Z,3.47
2023-02-04T05:42:34.187Z,3.35
2023-02-04T05:45:02.004Z,3.80
2023-02-04T05:47:29.772Z,3.22
2023-02-04T05:49:58.870Z,3.40
2023-02-04T05:52:27.108Z,3.58
2023-02-04T05:54:54.885Z,3.58
2023-02-04T05:57:22.655Z,3.80
2023-02-04T05:59:50.450Z,3.65
2023-02-04T06:02:18.478Z,3.92
2023-02-04T06:04:46.316Z,3.42
2023-02-04T06:07:15.444Z,3.50
2023-02-04T06:09:43.292Z,3.03
2023-02-04T06:12:11.053Z,3.20
2023-02-04T06:14:38.871Z,3.72
2023-02-04T06:17:07.103Z,2.88
2023-02-04T06:19:34.936Z,3.20
2023-02-04T06:22:02.725Z,3.30
2023-02-04T06:24:31.884Z,10.85
2023-02-04T06:26:59.762Z,5.93
2023-02-04T06:29:27.547Z,3.35
2023-02-04T06:31:55.379Z,2.70
2023-02-04T06:34:23.204Z,2.80
2023-02-04T06:36:51.102Z,2.50
2023-02-04T06:39:19.012Z,2.80
2023-02-04T06:41:48.160Z,2.50
2023-02-04T06:44:15.944Z,2.88
2023-02-04T06:46:43.676Z,2.40
2023-02-04T06:49:11.486Z,3.08
2023-02-04T06:51:39.466Z,2.58
2023-02-04T06:54:07.259Z,2.97
2023-02-04T06:56:35.048Z,3.05
2023-02-04T06:59:04.166Z,3.53
2023-02-04T07:01:31.947Z,3.00
2023-02-04T07:03:59.884Z,3.40
2023-02-04T07:06:27.709Z,3.83
2023-02-04T07:08:55.509Z,3.50
2023-02-04T07:11:23.309Z,3.45
2023-02-04T07:13:51.129Z,3.20
2023-02-04T07:16:20.218Z,3.45
2023-02-04T07:18:48.038Z,3.83
2023-02-04T07:21:16.374Z,4.00
2023-02-04T07:23:44.174Z,3.97
2023-02-04T07:26:11.946Z,3.90
2023-02-04T07:28:41.210Z,4.07
2023-02-04T07:31:09.052Z,3.80
2023-02-04T07:33:38.329Z,3.72
2023-02-04T07:36:06.309Z,4.40
2023-02-04T07:38:34.522Z,5.18
2023-02-04T07:41:02.323Z,5.45
2023-02-04T07:43:30.334Z,4.90
2023-02-04T07:45:58.158Z,4.78
2023-02-04T07:48:26.279Z,5.60
2023-02-04T07:50:55.404Z,5.50
2023-02-04T07:53:25.393Z,8.82
2023-02-04T07:55:53.145Z,6.35
2023-02-04T07:58:21.011Z,5.75
2023-02-04T08:00:48.986Z,6.10
2023-02-04T08:03:16.863Z,5.78
2023-02-04T08:05:44.574Z,5.90
2023-02-04T08:08:13.712Z,5.65
2023-02-04T08:10:41.543Z,5.30
2023-02-04T08:13:09.355Z,5.30
2023-02-04T08:15:37.274Z,5.32
2023-02-04T08:18:05.860Z,4.90
2023-02-04T08:20:34.329Z,5.85
2023-02-04T08:23:02.340Z,15.77
2023-02-04T08:25:31.459Z,7.53
2023-02-04T08:27:59.391Z,5.35
2023-02-04T08:30:27.282Z,5.55
2023-02-04T08:32:55.060Z,5.55
2023-02-04T08:35:22.883Z,5.43
2023-02-04T08:37:50.672Z,5.03
2023-02-04T08:40:20.336Z,5.63
2023-02-04T08:42:49.967Z,5.30
2023-02-04T08:45:18.117Z,5.20
2023-02-04T08:47:45.917Z,5.80
2023-02-04T08:50:13.666Z,5.80
2023-02-04T08:52:41.405Z,5.60
2023-02-04T08:55:10.056Z,5.57
2023-02-04T08:57:38.167Z,5.45
2023-02-04T09:00:08.159Z,6.20
2023-02-04T09:02:35.952Z,5.45
2023-02-04T09:05:04.290Z,6.03
2023-02-04T09:07:32.142Z,6.00
2023-02-04T09:10:00.126Z,5.78
2023-02-04T09:12:27.987Z,6.05
2023-02-04T09:14:55.781Z,5.88
2023-02-04T09:17:25.783Z,5.70
2023-02-04T09:19:53.517Z,7.43
2023-02-04T09:22:21.223Z,6.28
2023-02-04T09:24:49.044Z,5.97
2023-02-04T09:27:16.860Z,6.13
2023-02-04T09:29:44.693Z,6.05
2023-02-04T09:32:12.562Z,5.63
2023-02-04T09:34:41.680Z,5.78
2023-02-04T09:37:09.479Z,5.20
2023-02-04T09:39:37.274Z,5.75
2023-02-04T09:42:05.261Z,5.22
2023-02-04T09:44:33.325Z,5.60
2023-02-04T09:47:02.356Z,5.55
2023-02-04T09:49:30.239Z,5.35
2023-02-04T09:52:00.629Z,5.35
2023-02-04T09:54:28.339Z,4.88
2023-02-04T09:56:57.404Z,5.00
2023-02-04T09:59:28.905Z,5.05
2023-02-04T10:02:00.774Z,5.15
2023-02-04T10:04:29.847Z,4.82
2023-02-04T10:06:59.578Z,4.78
2023-02-04T10:09:27.786Z,5.72
2023-02-04T10:11:55.833Z,5.32
2023-02-04T10:14:25.422Z,5.28
2023-02-04T10:16:59.128Z,4.70
2023-02-04T10:19:29.963Z,4.90
2023-02-04T10:21:59.679Z,4.47
2023-02-04T10:24:30.675Z,3.72
2023-02-04T10:27:09.449Z,3.60
2023-02-04T10:29:37.503Z,4.55
2023-02-04T10:32:05.434Z,4.40
2023-02-04T10:34:37.931Z,3.95
2023-02-04T10:37:20.368Z,4.10
2023-02-04T10:39:48.827Z,3.75
2023-02-04T10:42:23.530Z,3.63
2023-02-04T10:44:51.897Z,3.35
2023-02-04T10:47:21.641Z,3.38
2023-02-04T10:49:57.497Z,4.43
2023-02-04T10:52:35.040Z,3.88
2023-02-04T10:55:04.527Z,3.60
2023-02-04T10:57:35.472Z,3.40
2023-02-04T11:00:05.726Z,3.25
2023-02-04T11:02:43.381Z,3.20
2023-02-04T11:05:17.075Z,3.05
2023-02-04T11:07:46.744Z,3.13
2023-02-04T11:10:16.970Z,3.15
2023-02-04T11:12:47.673Z,2.20
2023-02-04T11:15:50.217Z,2.63
2023-02-04T11:18:31.211Z,2.70
2023-02-04T11:21:00.577Z,3.20
2023-02-04T11:23:36.331Z,2.65
2023-02-04T11:26:08.311Z,2.85
2023-02-04T11:28:51.727Z,2.63
2023-02-04T11:31:45.755Z,3.20
2023-02-04T11:34:32.882Z,3.15
2023-02-04T11:37:16.709Z,2.88
2023-02-04T11:39:47.729Z,3.50
2023-02-04T11:42:22.576Z,3.25
2023-02-04T11:44:52.828Z,3.33
2023-02-04T11:47:21.156Z,2.97
2023-02-04T11:49:55.739Z,2.75
2023-02-04T11:52:23.634Z,2.92
2023-02-04T11:54:57.033Z,3.00
2023-02-04T11:57:24.896Z,3.10
2023-02-04T11:59:53.009Z,3.10
2023-02-04T12:02:23.383Z,2.90
2023-02-04T12:04:56.788Z,2.63
2023-02-04T12:07:29.538Z,2.70
2023-02-04T12:09:59.191Z,2.65
2023-02-04T12:12:29.912Z,2.60
2023-02-04T12:14:59.548Z,2.30
2023-02-04T12:17:27.283Z,2.70
2023-02-04T12:19:55.098Z,2.90
2023-02-04T12:22:22.833Z,3.03
2023-02-04T12:24:52.435Z,2.40
2023-02-04T12:27:22.451Z,2.60
2023-02-04T12:29:50.467Z,2.60
2023-02-04T12:32:18.291Z,2.58
2023-02-04T12:34:46.092Z,2.80
2023-02-04T12:37:13.867Z,3.00
2023-02-04T12:39:41.629Z,5.65
2023-02-04T12:42:09.468Z,3.10
2023-02-04T12:44:38.729Z,2.92
2023-02-04T12:47:06.687Z,2.28
2023-02-04T12:49:34.446Z,2.65
2023-02-04T12:52:03.542Z,2.45
2023-02-04T12:54:31.248Z,2.67
2023-02-04T12:56:59.447Z,2.47
2023-02-04T12:59:27.347Z,2.42
2023-02-04T13:01:56.791Z,2.40
2023-02-04T13:04:24.684Z,2.20
2023-02-04T13:06:52.494Z,2.50
2023-02-04T13:09:20.318Z,2.25
2023-02-04T13:11:48.157Z,2.45
2023-02-04T13:14:16.010Z,2.25
2023-02-04T13:16:43.866Z,2.20
2023-02-04T13:19:13.302Z,2.25
2023-02-04T13:21:41.114Z,2.22
2023-02-04T13:24:09.060Z,2.33
2023-02-04T13:26:36.958Z,2.30
2023-02-04T13:29:04.828Z,2.28
2023-02-04T13:31:32.688Z,2.50
2023-02-04T13:34:00.526Z,2.47
2023-02-04T13:36:30.429Z,2.22
2023-02-04T13:39:00.091Z,2.78
2023-02-04T13:41:28.315Z,2.53
2023-02-04T13:43:56.246Z,2.42
2023-02-04T13:46:24.176Z,2.35
2023-02-04T13:48:52.019Z,2.72
2023-02-04T13:51:20.101Z,2.40
2023-02-04T13:53:49.228Z,2.63
2023-02-04T13:56:16.977Z,2.80
2023-02-04T13:58:45.488Z,2.70
2023-02-04T14:01:14.748Z,2.95
2023-02-04T14:03:43.839Z,2.95
2023-02-04T14:06:12.714Z,3.38
2023-02-04T14:08:40.702Z,2.80
2023-02-04T14:11:09.850Z,3.75
2023-02-04T14:13:37.876Z,2.72
2023-02-04T14:16:09.238Z,2.92
2023-02-04T14:18:37.106Z,2.58
2023-02-04T14:21:04.981Z,3.03
2023-02-04T14:23:32.709Z,2.60
2023-02-04T14:26:00.450Z,2.75
2023-02-04T14:28:29.614Z,2.70
2023-02-04T14:30:57.494Z,2.80
2023-02-04T14:33:25.302Z,2.30
2023-02-04T14:35:53.108Z,2.75
2023-02-04T14:38:21.076Z,2.33
2023-02-04T14:40:48.925Z,2.45
2023-02-04T14:43:16.660Z,2.70
2023-02-04T14:45:46.135Z,2.55
2023-02-04T14:48:13.959Z,2.90
2023-02-04T14:50:41.789Z,3.58
2023-02-04T14:53:09.571Z,2.47
2023-02-04T14:55:37.371Z,3.10
2023-02-04T14:58:05.291Z,3.30
2023-02-04T15:00:33.312Z,3.60
2023-02-04T15:03:02.985Z,3.17
2023-02-04T15:05:30.766Z,3.00
2023-02-04T15:07:58.977Z,3.50
2023-02-04T15:10:26.852Z,3.92
2023-02-04T15:12:55.824Z,3.80
2023-02-04T15:15:23.669Z,3.95
2023-02-04T15:17:52.573Z,4.22
2023-02-04T15:20:21.868Z,3.75
2023-02-04T15:22:51.818Z,4.47
2023-02-04T15:25:20.034Z,3.40
2023-02-04T15:27:47.820Z,2.80
2023-02-04T15:30:16.082Z,2.97
2023-02-04T15:32:45.876Z,3.00
2023-02-04T15:35:14.028Z,2.80
2023-02-04T15:37:50.258Z,2.67
2023-02-04T15:40:18.719Z,2.80
2023-02-04T15:42:46.555Z,2.83
2023-02-04T15:45:14.527Z,2.63
2023-02-04T15:47:42.265Z,3.10
2023-02-04T15:50:12.737Z,3.13
2023-02-04T15:52:40.456Z,3.15
2023-02-04T15:55:10.115Z,3.42
2023-02-04T15:57:38.482Z,2.78
2023-02-04T16:00:07.710Z,2.92
2023-02-04T16:02:35.549Z,3.20
2023-02-04T16:05:03.409Z,3.20
2023-02-04T16:07:31.240Z,2.92
2023-02-04T16:09:59.026Z,3.20
2023-02-04T16:12:29.449Z,2.90
2023-02-04T16:14:57.463Z,3.28
2023-02-04T16:17:25.220Z,2.60
2023-02-04T16:19:52.995Z,2.67
2023-02-04T16:22:20.840Z,3.17
2023-02-04T16:24:48.717Z,2.88
2023-02-04T16:27:17.238Z,3.25
2023-02-04T16:29:46.452Z,2.97
2023-02-04T16:32:14.961Z,3.58
2023-02-04T16:34:43.017Z,3.60
2023-02-04T16:37:10.877Z,3.45
2023-02-04T16:39:39.109Z,3.13
2023-02-04T16:42:08.894Z,3.70
2023-02-04T16:44:38.664Z,2.88
2023-02-04T16:47:09.526Z,4.22
2023-02-04T16:49:37.838Z,3.90
2023-02-04T16:52:06.099Z,3.88
2023-02-04T16:54:35.399Z,4.22
2023-02-04T16:57:03.836Z,5.10
2023-02-04T16:59:32.706Z,4.65
2023-02-04T17:02:00.975Z,5.18
2023-02-04T17:04:32.324Z,7.47
2023-02-04T17:07:00.750Z,7.85
2023-02-04T17:09:28.531Z,6.13
2023-02-04T17:11:56.643Z,5.50
2023-02-04T17:14:25.045Z,4.82
2023-02-04T17:16:52.917Z,4.80
2023-02-04T17:19:21.072Z,5.55
2023-02-04T17:21:50.253Z,5.03
2023-02-04T17:24:18.078Z,5.10
2023-02-04T17:26:45.857Z,4.22
2023-02-04T17:29:17.125Z,4.95
2023-02-04T17:31:45.624Z,4.75
2023-02-04T17:34:13.482Z,4.43
2023-02-04T17:36:41.277Z,4.60
2023-02-04T17:39:10.409Z,4.85
2023-02-04T17:41:38.236Z,4.38
2023-02-04T17:44:06.613Z,4.97
2023-02-04T17:46:35.427Z,4.78
2023-02-04T17:49:03.372Z,4.55
2023-02-04T17:51:31.720Z,5.10
2023-02-04T17:54:02.938Z,5.38
2023-02-04T17:56:32.805Z,5.60
2023-02-04T17:59:00.673Z,4.65
2023-02-04T18:01:28.453Z,5.15
2023-02-04T18:03:56.595Z,5.28
2023-02-04T18:06:28.421Z,5.70
2023-02-04T18:09:01.669Z,5.40
2023-02-04T18:11:36.896Z,5.68
2023-02-04T18:14:14.492Z,5.65
2023-02-04T18:16:42.356Z,5.95
2023-02-04T18:19:19.031Z,6.15
2023-02-04T18:21:47.369Z,5.45
2023-02-04T18:24:18.843Z,5.30
2023-02-04T18:26:50.112Z,5.50
2023-02-04T18:29:32.520Z,5.82
2023-02-04T18:32:02.968Z,5.43
2023-02-04T18:34:36.270Z,5.18
2023-02-04T18:37:27.618Z,5.32
2023-02-04T18:39:58.683Z,5.25
2023-02-04T18:42:28.379Z,5.70
2023-02-04T18:44:56.801Z,5.95
2023-02-04T18:47:31.508Z,5.43
2023-02-04T18:50:01.349Z,5.82
2023-02-04T18:52:37.512Z,5.72
2023-02-04T18:55:23.382Z,5.40
2023-02-04T18:57:52.522Z,6.55
2023-02-04T19:00:26.201Z,5.00
2023-02-04T19:02:56.576Z,6.18
2023-02-04T19:05:28.727Z,6.65
2023-02-04T19:08:30.284Z,5.93
2023-02-04T19:11:00.838Z,6.37
2023-02-04T19:13:40.419Z,5.45
2023-02-04T19:16:21.477Z,6.30
2023-02-04T19:18:49.449Z,5.53
2023-02-04T19:21:27.144Z,5.40
2023-02-04T19:24:00.300Z,7.63
2023-02-04T19:26:35.881Z,7.00
2023-02-04T19:29:44.916Z,6.80
2023-02-04T19:32:27.378Z,6.82
2023-02-04T19:34:58.474Z,7.13
2023-02-04T19:37:28.488Z,6.90
2023-02-04T19:39:57.202Z,6.35
2023-02-04T19:42:30.386Z,6.20
2023-02-04T19:45:02.125Z,6.82
2023-02-04T19:47:36.148Z,5.75
2023-02-04T19:50:21.780Z,6.97
2023-02-04T19:52:52.232Z,7.45
2023-02-04T19:55:33.443Z,7.35
2023-02-04T19:58:15.354Z,7.15
2023-02-04T20:01:00.702Z,6.95
2023-02-04T20:03:42.058Z,5.97
2023-02-04T20:06:30.080Z,7.27
2023-02-04T20:09:00.218Z,6.10
2023-02-04T20:11:45.141Z,6.30
2023-02-04T20:14:27.214Z,7.20
2023-02-04T20:16:58.540Z,6.00
2023-02-04T20:19:37.757Z,6.40
2023-02-04T20:22:45.635Z,6.50
2023-02-04T20:25:47.134Z,6.82
2023-02-04T20:28:36.955Z,6.78
2023-02-04T20:31:19.441Z,6.53
2023-02-04T20:33:51.690Z,7.10
2023-02-04T20:36:42.361Z,7.75
2023-02-04T20:39:41.356Z,6.88
2023-02-04T20:42:29.860Z,7.60
2023-02-04T20:45:12.500Z,7.60
2023-02-04T20:47:40.352Z,7.45
2023-02-04T20:50:41.444Z,6.88
2023-02-04T20:53:28.254Z,6.88
2023-02-04T20:56:03.670Z,7.35
2023-02-04T20:58:37.099Z,7.30
2023-02-04T21:01:20.519Z,8.00
2023-02-04T21:03:50.239Z,7.50
2023-02-04T21:06:25.855Z,8.15
2023-02-04T21:08:55.120Z,8.93
2023-02-04T21:11:23.155Z,8.32
2023-02-04T21:13:52.256Z,10.05
2023-02-04T21:16:20.108Z,9.25
2023-02-04T21:18:48.120Z,8.43
2023-02-04T21:21:16.271Z,8.68
2023-02-04T21:23:45.471Z,8.32
2023-02-04T21:26:13.232Z,8.30
2023-02-04T21:28:41.175Z,7.55
2023-02-04T21:31:09.954Z,7.85
2023-02-04T21:33:37.793Z,7.97
2023-02-04T21:36:06.470Z,7.28
2023-02-04T21:38:34.202Z,7.63
2023-02-04T21:41:03.428Z,7.47
2023-02-04T21:43:32.184Z,7.80
2023-02-04T21:46:00.505Z,7.50
2023-02-04T21:48:28.340Z,8.00
2023-02-04T21:50:56.128Z,8.40
2023-02-04T21:53:24.539Z,8.73
2023-02-04T21:55:52.270Z,8.73
2023-02-04T21:58:21.357Z,8.25
2023-02-04T22:00:49.143Z,8.35
2023-02-04T22:03:17.471Z,8.48
2023-02-04T22:05:47.975Z,9.00
2023-02-04T22:08:15.781Z,10.23
2023-02-04T22:10:43.640Z,9.68
2023-02-04T22:13:11.431Z,8.35
2023-02-04T22:15:40.611Z,8.05
2023-02-04T22:18:08.432Z,9.45
2023-02-04T22:20:38.594Z,8.60
2023-02-04T22:23:07.266Z,8.32
2023-02-04T22:25:35.232Z,8.23
2023-02-04T22:28:03.135Z,7.95
2023-02-04T22:30:30.957Z,8.07
2023-02-04T22:33:01.580Z,8.27
2023-02-04T22:35:29.931Z,8.00
2023-02-04T22:37:59.996Z,7.82
2023-02-04T22:40:28.906Z,10.10
2023-02-04T22:42:56.677Z,9.43
2023-02-04T22:45:24.446Z,7.97
2023-02-04T22:47:52.256Z,8.52
2023-02-04T22:50:21.406Z,7.68
2023-02-04T22:52:49.233Z,7.63
2023-02-04T22:55:17.086Z,8.00
2023-02-04T22:57:44.886Z,7.68
2023-02-04T23:00:14.042Z,7.93
2023-02-04T23:02:41.768Z,7.53
2023-02-04T23:05:12.873Z,7.80
2023-02-04T23:07:42.092Z,9.00
2023-02-04T23:10:10.011Z,8.45
2023-02-04T23:12:37.820Z,9.00
2023-02-04T23:15:06.393Z,7.85
2023-02-04T23:17:34.173Z,8.75
2023-02-04T23:20:01.914Z,8.38
2023-02-04T23:22:29.750Z,8.00
2023-02-04T23:24:59.512Z,8.07
2023-02-04T23:27:27.399Z,8.27
2023-02-04T23:29:55.246Z,8.50
2023-02-04T23:32:24.382Z,7.68
2023-02-04T23:34:52.188Z,8.23
2023-02-04T23:37:20.256Z,7.45
2023-02-04T23:39:47.977Z,9.10
2023-02-04T23:42:17.062Z,7.88
2023-02-04T23:44:44.858Z,7.72
2023-02-04T23:47:12.599Z,8.93
2023-02-04T23:49:40.334Z,8.98
2023-02-04T23:52:08.396Z,8.45
2023-02-04T23:54:36.421Z,8.70
2023-02-04T23:57:04.712Z,7.97
2023-02-04T23:59:36.111Z,8.82
